Time;durP1;ratioP1;P1;durP2;ratioP2;P2;SDS_P1;SDS_P2;PMS_P1;PMS_P2;Temp;Humidity;BMP_temperature;BMP_pressure;BME280_temperature;BME280_humidity;BME280_pressure;Samples;Min_cycle;Max_cycle;Signal;HPM_P1;HPM_P2
2022/11/10 00:00:42;;;;;;;14.77;4.53;;;9.60;99.90;;;;;;5079606;28;20163;-68
2022/11/10 00:03:09;;;;;;;15.60;4.10;;;9.60;99.90;;;;;;5053820;28;20102;-68
2022/11/10 00:05:37;;;;;;;18.63;4.53;;;9.60;99.90;;;;;;5047777;28;20053;-68
2022/11/10 00:08:05;;;;;;;15.07;5.15;;;9.60;99.90;;;;;;5082345;28;20053;-68
2022/11/10 00:10:31;;;;;;;12.63;4.72;;;9.60;99.90;;;;;;5052359;28;20052;-68
2022/11/10 00:13:02;;;;;;;19.27;4.30;;;9.60;99.90;;;;;;5054447;28;20045;-68
2022/11/10 00:18:12;;;;;;;12.65;4.78;;;9.60;99.90;;;;;;5058949;28;20102;-68
2022/11/10 00:20:38;;;;;;;15.00;4.43;;;9.50;99.90;;;;;;5056552;28;20041;-68
2022/11/10 00:23:04;;;;;;;15.05;5.35;;;9.60;99.90;;;;;;5061506;28;20502;-68
2022/11/10 00:25:31;;;;;;;17.55;5.50;;;9.60;99.90;;;;;;5051883;28;20058;-68
2022/11/10 00:27:58;;;;;;;13.48;4.75;;;9.50;99.90;;;;;;5055246;28;20049;-68
2022/11/10 00:30:25;;;;;;;13.15;5.00;;;9.50;99.90;;;;;;5054572;28;20071;-68
2022/11/10 00:32:51;;;;;;;19.80;5.05;;;9.50;99.90;;;;;;5061057;28;20448;-68
2022/11/10 00:35:17;;;;;;;14.30;5.38;;;9.50;99.90;;;;;;5048501;28;20053;-68
2022/11/10 00:37:42;;;;;;;20.50;5.38;;;9.50;99.90;;;;;;5059755;28;20053;-68
2022/11/10 00:40:09;;;;;;;17.58;5.72;;;9.50;99.90;;;;;;5055310;28;20053;-68
2022/11/10 00:42:34;;;;;;;22.63;5.63;;;9.50;99.90;;;;;;5059622;28;20048;-68
2022/11/10 00:45:00;;;;;;;18.60;6.20;;;9.50;99.90;;;;;;5056423;28;20037;-68
2022/11/10 00:47:26;;;;;;;14.98;5.97;;;9.50;99.90;;;;;;5061169;28;20045;-68
2022/11/10 00:49:52;;;;;;;19.23;6.20;;;9.50;99.90;;;;;;5055777;28;20095;-68
2022/11/10 00:52:17;;;;;;;16.38;6.15;;;9.50;99.90;;;;;;5034723;28;20048;-68
2022/11/10 00:54:43;;;;;;;21.33;6.43;;;9.40;99.90;;;;;;5056364;28;20129;-68
2022/11/10 00:57:08;;;;;;;16.85;5.93;;;9.40;99.90;;;;;;5061353;28;20052;-68
2022/11/10 00:59:34;;;;;;;17.10;6.38;;;9.50;99.90;;;;;;5057373;28;20050;-68
2022/11/10 01:02:00;;;;;;;23.25;6.78;;;9.40;99.90;;;;;;5059833;28;20048;-68
2022/11/10 01:04:25;;;;;;;16.90;5.82;;;9.40;99.90;;;;;;5054883;28;20312;-68
2022/11/10 01:06:51;;;;;;;17.33;6.50;;;9.40;99.90;;;;;;5051932;28;20053;-68
2022/11/10 01:09:17;;;;;;;19.92;7.45;;;9.30;99.90;;;;;;5054750;28;20073;-68
2022/11/10 01:11:43;;;;;;;19.00;7.03;;;9.30;99.90;;;;;;5062352;28;20071;-68
2022/11/10 01:14:08;;;;;;;22.25;7.45;;;9.30;99.90;;;;;;5060170;28;20080;-68
2022/11/10 01:16:34;;;;;;;19.60;6.68;;;9.30;99.90;;;;;;5062582;28;20056;-68
2022/11/10 01:19:01;;;;;;;18.88;6.85;;;9.30;99.90;;;;;;5061702;28;20045;-68
2022/11/10 01:21:28;;;;;;;17.75;7.55;;;9.30;99.90;;;;;;5062622;28;20049;-68
2022/11/10 01:23:55;;;;;;;23.48;7.47;;;9.30;99.90;;;;;;5095567;28;20072;-68
2022/11/10 01:26:21;;;;;;;20.98;8.10;;;9.30;99.90;;;;;;5063433;28;20067;-68
2022/11/10 01:28:47;;;;;;;19.90;7.95;;;9.40;99.90;;;;;;5060560;28;20053;-68
2022/11/10 01:31:16;;;;;;;23.65;7.78;;;9.30;99.90;;;;;;5053450;28;20046;-68
2022/11/10 01:33:41;;;;;;;20.33;7.90;;;9.30;99.90;;;;;;5045351;28;20049;-68
2022/11/10 01:36:09;;;;;;;23.02;8.00;;;9.30;99.90;;;;;;5044905;28;20143;-68
2022/11/10 01:38:37;;;;;;;21.10;8.07;;;9.40;99.90;;;;;;5045622;28;20045;-68
2022/11/10 01:41:06;;;;;;;24.38;8.48;;;9.30;99.90;;;;;;5044652;28;20046;-68
2022/11/10 01:43:32;;;;;;;20.15;8.10;;;9.40;99.90;;;;;;5026700;28;20037;-68
2022/11/10 01:46:09;;;;;;;23.33;9.15;;;9.30;99.90;;;;;;5044274;28;20120;-68
2022/11/10 01:48:59;;;;;;;24.90;8.73;;;9.40;99.90;;;;;;5045867;28;20037;-68
2022/11/10 01:51:36;;;;;;;22.30;8.88;;;9.40;99.90;;;;;;5044127;28;20049;-68
2022/11/10 01:54:08;;;;;;;18.60;8.32;;;9.30;99.90;;;;;;5043170;28;20053;-68
2022/11/10 01:56:40;;;;;;;21.88;9.70;;;9.30;99.90;;;;;;5042490;28;20129;-68
2022/11/10 01:59:11;;;;;;;30.73;8.98;;;9.40;99.90;;;;;;5042106;28;20058;-68
2022/11/10 02:01:37;;;;;;;21.52;8.82;;;9.30;99.90;;;;;;5059246;28;20049;-68
2022/11/10 02:04:06;;;;;;;18.77;9.15;;;9.20;99.90;;;;;;5046068;28;20074;-68
2022/11/10 02:06:39;;;;;;;22.83;9.35;;;9.30;99.90;;;;;;5049401;28;20551;-68
2022/11/10 02:09:05;;;;;;;22.15;8.65;;;9.40;99.90;;;;;;5051992;28;20436;-68
2022/11/10 02:11:32;;;;;;;28.02;9.90;;;9.30;99.90;;;;;;5049568;28;20044;-68
2022/11/10 02:13:58;;;;;;;29.83;9.23;;;9.40;99.90;;;;;;5052487;28;20060;-68
2022/11/10 02:16:24;;;;;;;22.48;9.80;;;9.30;99.90;;;;;;5057839;28;20045;-68
2022/11/10 02:18:50;;;;;;;18.63;7.93;;;9.30;99.90;;;;;;5054407;28;20049;-68
2022/11/10 02:21:17;;;;;;;22.05;8.52;;;9.30;99.90;;;;;;5050880;28;20041;-68
2022/11/10 02:23:44;;;;;;;22.50;8.07;;;9.20;99.90;;;;;;5043926;28;20055;-68
2022/11/10 02:26:10;;;;;;;23.38;9.93;;;9.20;99.90;;;;;;5031607;28;20113;-68
2022/11/10 02:28:37;;;;;;;19.42;8.45;;;9.20;99.90;;;;;;5054394;28;20056;-68
2022/11/10 02:31:04;;;;;;;16.88;7.60;;;9.30;99.90;;;;;;5058737;28;20440;-68
2022/11/10 02:33:30;;;;;;;24.20;9.00;;;9.20;99.90;;;;;;5046233;28;20050;-68
2022/11/10 02:35:56;;;;;;;24.60;8.55;;;9.30;99.90;;;;;;5058121;28;20037;-68
2022/11/10 02:38:21;;;;;;;25.23;8.75;;;9.20;99.90;;;;;;5044990;28;20045;-68
2022/11/10 02:40:50;;;;;;;22.05;7.80;;;9.20;99.90;;;;;;5044620;28;20101;-68
2022/11/10 02:43:18;;;;;;;16.42;7.32;;;9.30;99.90;;;;;;5045268;28;20060;-68
2022/11/10 02:45:45;;;;;;;21.27;8.65;;;9.20;99.90;;;;;;5046023;28;20041;-68
2022/11/10 02:48:12;;;;;;;25.88;8.68;;;9.20;99.90;;;;;;5047105;28;20053;-68
2022/11/10 02:50:38;;;;;;;20.55;7.43;;;9.20;99.90;;;;;;5047298;28;20049;-68
2022/11/10 02:53:04;;;;;;;24.73;8.95;;;9.20;99.90;;;;;;5058813;28;20079;-68
2022/11/10 02:55:30;;;;;;;21.80;7.70;;;9.30;99.90;;;;;;5057348;28;20034;-68
2022/11/10 02:57:56;;;;;;;24.65;8.15;;;9.30;99.90;;;;;;5060357;28;20037;-68
2022/11/10 03:00:22;;;;;;;20.58;7.50;;;9.30;99.90;;;;;;5047767;28;20099;-68
2022/11/10 03:02:48;;;;;;;23.25;7.28;;;9.30;99.90;;;;;;5065860;28;20048;-68
2022/11/10 03:05:14;;;;;;;22.45;7.43;;;9.20;99.90;;;;;;5057216;28;20045;-68
2022/11/10 03:07:40;;;;;;;17.00;6.45;;;9.20;99.90;;;;;;5063180;28;20075;-68
2022/11/10 03:10:06;;;;;;;24.25;7.18;;;9.20;99.90;;;;;;5054790;28;20076;-68
2022/11/10 03:12:32;;;;;;;18.60;7.15;;;9.20;99.90;;;;;;5062390;28;20105;-68
2022/11/10 03:14:57;;;;;;;23.92;7.80;;;9.20;99.90;;;;;;5057455;28;20076;-68
2022/11/10 03:17:23;;;;;;;22.17;8.27;;;9.20;99.90;;;;;;5061643;28;20083;-68
2022/11/10 03:19:49;;;;;;;18.05;6.85;;;9.30;99.90;;;;;;5059877;28;20113;-68
2022/11/10 03:22:15;;;;;;;22.50;7.97;;;9.20;99.90;;;;;;5063257;28;20053;-68
2022/11/10 03:24:41;;;;;;;21.20;7.78;;;9.20;99.90;;;;;;5060713;28;20047;-68
2022/11/10 03:27:07;;;;;;;26.00;9.23;;;9.20;99.90;;;;;;5054158;28;20128;-68
2022/11/10 03:29:33;;;;;;;22.00;9.00;;;9.30;99.90;;;;;;5046122;28;20046;-68
2022/11/10 03:31:58;;;;;;;31.33;9.70;;;9.30;99.90;;;;;;5063825;28;20055;-68
2022/11/10 03:34:24;;;;;;;23.27;8.80;;;9.20;99.90;;;;;;5057782;28;20068;-68
2022/11/10 03:36:50;;;;;;;22.50;9.35;;;9.30;99.90;;;;;;5059196;28;20091;-68
2022/11/10 03:39:15;;;;;;;23.88;9.75;;;9.30;99.90;;;;;;5046991;28;20049;-68
2022/11/10 03:41:41;;;;;;;27.02;10.70;;;9.30;99.90;;;;;;5065288;28;20255;-68
2022/11/10 03:44:06;;;;;;;31.73;10.98;;;9.40;99.90;;;;;;5051777;28;20457;-68
2022/11/10 03:46:32;;;;;;;22.95;10.45;;;9.30;99.90;;;;;;5064448;28;20079;-68
2022/11/10 03:48:58;;;;;;;28.15;12.55;;;9.20;99.90;;;;;;5065734;28;20048;-68
2022/11/10 03:51:23;;;;;;;26.10;10.82;;;9.30;99.90;;;;;;5065371;28;20099;-68
2022/11/10 03:53:49;;;;;;;27.58;12.50;;;9.30;99.90;;;;;;5038686;28;20133;-68
2022/11/10 03:56:15;;;;;;;26.85;11.35;;;9.20;99.90;;;;;;5064584;28;20045;-68
2022/11/10 03:58:41;;;;;;;30.08;12.55;;;9.30;99.90;;;;;;5062582;28;20048;-68
2022/11/10 04:01:07;;;;;;;28.20;12.05;;;9.30;99.90;;;;;;5058029;28;20045;-68
2022/11/10 04:03:32;;;;;;;28.13;13.05;;;9.30;99.90;;;;;;5052169;28;20418;-68
2022/11/10 04:08:57;;;;;;;31.60;13.05;;;9.20;99.90;;;;;;5051203;28;20060;-68
2022/11/10 04:16:53;;;;;;;32.53;12.55;;;9.20;99.90;;;;;;5044411;28;20072;-68
2022/11/10 04:19:19;;;;;;;36.65;13.43;;;9.30;99.90;;;;;;5054557;28;20049;-68
2022/11/10 04:21:45;;;;;;;35.42;13.77;;;9.30;99.90;;;;;;5050420;28;20085;-68
2022/11/10 04:24:10;;;;;;;32.95;12.80;;;9.30;99.90;;;;;;5054738;28;20071;-68
2022/11/10 04:26:37;;;;;;;26.80;12.90;;;9.40;99.90;;;;;;5049447;28;20118;-68
2022/11/10 04:29:08;;;;;;;35.15;13.40;;;9.30;99.90;;;;;;5049379;28;20517;-68
2022/11/10 04:31:36;;;;;;;36.33;13.75;;;9.40;99.90;;;;;;5054297;28;20041;-68
2022/11/10 04:34:03;;;;;;;33.85;13.30;;;9.30;99.90;;;;;;5052049;28;20144;-68
2022/11/10 04:36:31;;;;;;;33.03;13.60;;;9.30;99.90;;;;;;5048932;28;20520;-68
2022/11/10 04:38:58;;;;;;;34.55;13.63;;;9.30;99.90;;;;;;5049712;28;20048;-68
2022/11/10 04:41:25;;;;;;;27.92;12.18;;;9.30;99.90;;;;;;5045423;28;20048;-68
2022/11/10 04:43:51;;;;;;;30.52;13.68;;;9.40;99.90;;;;;;5054015;28;20044;-68
2022/11/10 04:46:26;;;;;;;31.42;12.60;;;9.40;99.90;;;;;;5051006;28;20042;-68
2022/11/10 04:48:53;;;;;;;35.17;13.18;;;9.30;99.90;;;;;;5054296;28;20084;-68
2022/11/10 04:51:22;;;;;;;29.13;13.38;;;9.30;99.90;;;;;;5052482;28;20038;-68
2022/11/10 04:53:48;;;;;;;32.08;12.52;;;9.30;99.90;;;;;;5053993;28;20082;-68
2022/11/10 04:56:21;;;;;;;30.55;13.60;;;9.40;99.90;;;;;;5047129;28;20053;-68
2022/11/10 04:58:47;;;;;;;39.40;15.10;;;9.40;99.90;;;;;;5053921;28;20049;-68
2022/11/10 05:01:16;;;;;;;30.85;13.98;;;9.50;99.90;;;;;;5050386;28;20041;-68
2022/11/10 05:03:42;;;;;;;34.58;14.90;;;9.40;99.90;;;;;;5058126;28;20424;-68
2022/11/10 05:06:08;;;;;;;30.80;14.10;;;9.40;99.90;;;;;;5056814;28;20053;-68
2022/11/10 05:08:35;;;;;;;27.65;13.98;;;9.50;99.90;;;;;;5058971;28;20056;-68
2022/11/10 05:11:00;;;;;;;30.50;14.95;;;9.50;99.90;;;;;;5054315;28;20045;-68
2022/11/10 05:13:26;;;;;;;40.45;15.02;;;9.60;99.90;;;;;;5060322;28;20500;-68
2022/11/10 05:15:53;;;;;;;36.10;14.90;;;9.40;99.90;;;;;;5058242;28;20033;-68
2022/11/10 05:18:19;;;;;;;34.15;14.32;;;9.50;99.90;;;;;;5061901;28;20041;-68
2022/11/10 05:20:44;;;;;;;36.25;14.93;;;9.40;99.90;;;;;;5048844;28;20107;-68
2022/11/10 05:25:55;;;;;;;32.17;15.57;;;9.50;99.90;;;;;;5062443;28;20528;-68
2022/11/10 05:28:21;;;;;;;37.00;15.68;;;9.50;99.90;;;;;;5059853;28;20053;-68
2022/11/10 05:30:47;;;;;;;39.35;16.27;;;9.50;99.90;;;;;;5053902;28;20099;-68
2022/11/10 05:33:12;;;;;;;40.10;16.88;;;9.50;99.90;;;;;;5055642;28;20073;-68
2022/11/10 05:35:39;;;;;;;43.47;18.25;;;9.50;99.90;;;;;;5048076;28;20110;-68
2022/11/10 05:38:05;;;;;;;36.90;17.13;;;9.50;99.90;;;;;;4995005;28;20077;-68
2022/11/10 05:40:31;;;;;;;38.05;16.60;;;9.50;99.90;;;;;;5021701;28;20053;-68
2022/11/10 05:42:57;;;;;;;40.95;17.13;;;9.60;99.90;;;;;;5023961;28;20041;-68
2022/11/10 05:45:27;;;;;;;34.10;17.50;;;9.50;99.90;;;;;;5015071;28;20468;-68
2022/11/10 05:47:53;;;;;;;36.43;17.30;;;9.50;99.90;;;;;;5022586;28;20057;-67
2022/11/10 05:50:20;;;;;;;41.90;17.63;;;9.50;99.90;;;;;;5012332;28;20050;-68
2022/11/10 05:52:51;;;;;;;35.28;17.55;;;9.60;99.90;;;;;;5004078;28;20348;-67
2022/11/10 05:55:20;;;;;;;41.70;18.05;;;9.60;99.90;;;;;;5024028;28;20050;-67
2022/11/10 05:57:48;;;;;;;39.70;17.88;;;9.60;99.90;;;;;;5018664;28;20057;-67
2022/11/10 06:00:16;;;;;;;35.13;16.88;;;9.70;99.90;;;;;;5020800;28;20053;-67
2022/11/10 06:02:42;;;;;;;40.05;18.88;;;9.70;99.90;;;;;;5020289;28;20137;-67
2022/11/10 06:05:09;;;;;;;36.92;18.02;;;9.60;99.90;;;;;;5020960;28;20077;-67
2022/11/10 06:07:37;;;;;;;37.17;17.83;;;9.60;99.90;;;;;;5020996;28;20403;-68
2022/11/10 06:10:03;;;;;;;37.83;18.02;;;9.60;99.90;;;;;;5022402;28;20041;-68
2022/11/10 06:12:29;;;;;;;47.35;17.63;;;9.70;99.90;;;;;;5022609;28;20049;-68
2022/11/10 06:14:56;;;;;;;34.75;16.80;;;9.80;99.90;;;;;;5006661;28;20123;-68
2022/11/10 06:17:26;;;;;;;42.15;18.15;;;9.70;99.90;;;;;;5037646;28;20076;-69
2022/11/10 06:19:52;;;;;;;36.63;17.30;;;9.70;99.90;;;;;;5025115;28;20052;-66
2022/11/10 06:22:17;;;;;;;40.50;17.92;;;9.70;99.90;;;;;;5026098;28;20053;-67
2022/11/10 06:24:43;;;;;;;35.15;17.00;;;9.70;99.90;;;;;;5005886;28;20078;-68
2022/11/10 06:27:09;;;;;;;40.35;19.10;;;9.70;99.90;;;;;;5023432;28;20058;-67
2022/11/10 06:29:34;;;;;;;39.15;18.30;;;9.70;99.90;;;;;;5026000;28;20068;-67
2022/11/10 06:32:00;;;;;;;41.30;18.63;;;9.70;99.90;;;;;;5026284;28;20052;-67
2022/11/10 06:34:26;;;;;;;38.25;17.40;;;9.70;99.90;;;;;;5024295;28;20118;-68
2022/11/10 06:36:52;;;;;;;38.15;17.45;;;9.60;99.90;;;;;;5011163;28;20061;-68
2022/11/10 06:39:18;;;;;;;34.55;17.35;;;9.70;99.90;;;;;;5030747;28;20104;-67
2022/11/10 06:41:43;;;;;;;39.58;17.77;;;9.60;99.90;;;;;;5027630;28;20525;-67
2022/11/10 06:44:10;;;;;;;38.72;17.50;;;9.60;99.90;;;;;;5034522;28;20049;-68
2022/11/10 06:46:37;;;;;;;35.22;16.42;;;9.60;99.90;;;;;;5022784;28;20097;-68
2022/11/10 06:49:03;;;;;;;37.38;17.45;;;9.60;99.90;;;;;;5008269;28;20060;-68
2022/11/10 06:51:28;;;;;;;33.90;16.13;;;9.60;99.90;;;;;;5012722;28;20199;-68
2022/11/10 06:53:54;;;;;;;34.95;15.65;;;9.60;99.90;;;;;;5057383;28;20502;-68
2022/11/10 06:56:20;;;;;;;39.42;18.23;;;9.60;99.90;;;;;;5053475;28;20053;-68
2022/11/10 06:58:45;;;;;;;37.60;15.98;;;9.60;99.90;;;;;;5052348;28;20056;-67
2022/11/10 07:01:11;;;;;;;37.42;16.35;;;9.60;99.90;;;;;;5039501;28;20949;-68
2022/11/10 07:03:37;;;;;;;40.03;16.95;;;9.60;99.90;;;;;;5028733;28;20566;-68
2022/11/10 07:06:03;;;;;;;33.53;16.35;;;9.70;99.90;;;;;;5057477;28;20132;-68
2022/11/10 07:08:29;;;;;;;33.83;15.48;;;9.60;99.90;;;;;;5051749;28;20580;-68
2022/11/10 07:10:55;;;;;;;33.70;16.48;;;9.70;99.90;;;;;;5042273;28;20060;-68
2022/11/10 07:13:21;;;;;;;43.47;16.33;;;9.60;99.90;;;;;;5047639;28;20170;-68
2022/11/10 07:15:47;;;;;;;41.05;16.48;;;9.70;99.90;;;;;;5040938;28;20054;-68
2022/11/10 07:18:13;;;;;;;37.80;15.77;;;9.70;99.90;;;;;;5041538;28;20083;-68
2022/11/10 07:20:39;;;;;;;37.08;15.38;;;9.70;99.90;;;;;;5061097;28;20108;-67
2022/11/10 07:23:06;;;;;;;35.38;15.23;;;9.60;99.90;;;;;;5043810;28;20064;-68
2022/11/10 07:25:34;;;;;;;32.40;15.05;;;9.80;99.90;;;;;;5060872;28;20334;-67
2022/11/10 07:28:03;;;;;;;42.00;16.35;;;9.80;99.90;;;;;;5042541;28;20095;-68
2022/11/10 07:30:31;;;;;;;38.33;15.57;;;9.80;99.90;;;;;;5080530;28;20037;-68
2022/11/10 07:33:02;;;;;;;35.47;14.68;;;9.80;99.90;;;;;;5037462;28;20048;-68
2022/11/10 07:35:29;;;;;;;36.75;15.38;;;9.90;99.90;;;;;;5057342;28;20117;-68
2022/11/10 07:38:00;;;;;;;38.38;15.55;;;9.90;99.90;;;;;;5029204;28;20053;-67
2022/11/10 07:40:26;;;;;;;32.80;15.25;;;10.00;99.90;;;;;;5079979;28;20455;-68
2022/11/10 07:42:52;;;;;;;32.58;15.77;;;9.90;99.90;;;;;;5042505;28;20073;-67
2022/11/10 07:45:17;;;;;;;29.27;14.00;;;10.00;99.90;;;;;;5055579;28;20591;-68
2022/11/10 07:47:43;;;;;;;34.30;14.65;;;10.10;99.90;;;;;;5045569;28;20373;-68
2022/11/10 07:50:09;;;;;;;35.80;15.85;;;10.00;99.90;;;;;;5052560;28;20044;-68
2022/11/10 07:52:35;;;;;;;31.50;15.25;;;10.10;99.90;;;;;;5043101;28;20129;-67
2022/11/10 07:55:00;;;;;;;32.65;15.20;;;10.10;99.90;;;;;;5053673;28;20068;-67
2022/11/10 07:57:26;;;;;;;32.67;15.32;;;10.20;99.90;;;;;;5044193;28;20061;-67
2022/11/10 07:59:52;;;;;;;37.50;16.23;;;10.10;99.90;;;;;;5053840;28;20063;-67
2022/11/10 08:02:17;;;;;;;36.30;15.95;;;10.20;99.90;;;;;;5041747;28;20072;-68
2022/11/10 08:04:43;;;;;;;36.63;16.17;;;10.10;99.90;;;;;;5052240;28;20057;-68
2022/11/10 08:07:09;;;;;;;33.35;16.80;;;10.20;99.90;;;;;;5047786;28;20517;-67
2022/11/10 08:09:34;;;;;;;30.30;15.85;;;10.20;99.90;;;;;;5015375;28;20453;-67
2022/11/10 08:12:00;;;;;;;41.20;16.75;;;10.30;99.90;;;;;;5019471;28;20103;-68
2022/11/10 08:14:26;;;;;;;37.53;17.42;;;10.20;99.90;;;;;;5034952;28;20052;-67
2022/11/10 08:16:51;;;;;;;32.90;16.52;;;10.30;99.90;;;;;;5049981;28;20053;-68
2022/11/10 08:19:17;;;;;;;31.73;16.55;;;10.30;99.90;;;;;;5046786;28;20048;-67
2022/11/10 08:21:43;;;;;;;34.03;16.17;;;10.30;99.90;;;;;;5052607;28;20053;-68
2022/11/10 08:24:09;;;;;;;34.33;17.08;;;10.30;99.90;;;;;;5043136;28;20058;-68
2022/11/10 08:26:34;;;;;;;30.08;16.65;;;10.40;99.90;;;;;;5050449;28;20065;-68
2022/11/10 08:29:00;;;;;;;36.17;17.55;;;10.30;99.90;;;;;;5038035;28;20111;-68
2022/11/10 08:31:26;;;;;;;29.50;15.38;;;10.30;99.90;;;;;;5068085;28;20072;-67
2022/11/10 08:33:51;;;;;;;40.25;17.52;;;10.20;99.90;;;;;;5051912;28;20049;-66
2022/11/10 08:36:17;;;;;;;33.88;15.73;;;10.40;99.90;;;;;;5037936;28;20037;-65
2022/11/10 08:38:43;;;;;;;37.83;16.05;;;10.30;99.90;;;;;;5031796;28;20072;-67
2022/11/10 08:41:08;;;;;;;32.83;15.05;;;10.50;99.90;;;;;;5057950;28;20049;-65
2022/11/10 08:43:34;;;;;;;39.45;15.57;;;10.50;99.90;;;;;;5040376;28;20056;-66
2022/11/10 08:46:02;;;;;;;33.20;16.45;;;10.60;99.90;;;;;;5060120;28;20052;-66
2022/11/10 08:48:28;;;;;;;32.65;14.63;;;10.60;99.90;;;;;;5032495;28;20049;-66
2022/11/10 08:50:54;;;;;;;31.45;15.88;;;10.70;99.90;;;;;;5062193;28;20114;-66
2022/11/10 08:53:22;;;;;;;35.42;15.35;;;10.90;99.90;;;;;;5027863;28;20076;-66
2022/11/10 08:55:49;;;;;;;33.60;15.27;;;10.90;99.90;;;;;;5031909;28;20139;-66
2022/11/10 08:58:20;;;;;;;32.42;15.18;;;11.00;99.90;;;;;;5032558;28;20461;-67
2022/11/10 09:00:46;;;;;;;30.35;14.10;;;11.10;99.90;;;;;;5032858;28;20144;-66
2022/11/10 09:03:17;;;;;;;27.48;13.60;;;11.20;99.90;;;;;;5016949;28;20041;-66
2022/11/10 09:05:44;;;;;;;26.95;13.43;;;11.30;99.90;;;;;;5007500;28;20127;-66
2022/11/10 09:08:10;;;;;;;25.77;13.93;;;11.30;99.90;;;;;;5013087;28;20041;-65
2022/11/10 09:10:38;;;;;;;29.88;12.43;;;11.40;99.90;;;;;;5042917;28;20076;-66
2022/11/10 09:13:05;;;;;;;29.75;13.18;;;11.30;99.90;;;;;;5043563;28;20057;-66
2022/11/10 09:15:31;;;;;;;37.20;12.95;;;11.30;99.90;;;;;;5047420;28;20056;-65
2022/11/10 09:17:58;;;;;;;26.50;13.15;;;11.30;99.90;;;;;;5043610;28;20064;-65
2022/11/10 09:20:26;;;;;;;23.85;12.13;;;11.30;99.90;;;;;;5050802;28;20052;-65
2022/11/10 09:22:53;;;;;;;30.83;12.57;;;11.30;99.90;;;;;;5047281;28;20037;-65
2022/11/10 09:25:19;;;;;;;28.23;12.95;;;11.40;99.90;;;;;;5045994;28;20071;-65
2022/11/10 09:27:45;;;;;;;30.98;13.52;;;11.50;99.90;;;;;;5033019;28;20049;-65
2022/11/10 09:30:11;;;;;;;26.65;12.05;;;11.60;99.90;;;;;;5044286;28;20056;-65
2022/11/10 09:32:36;;;;;;;26.60;12.00;;;11.60;99.90;;;;;;5044120;28;20083;-65
2022/11/10 09:35:03;;;;;;;27.10;12.05;;;11.60;99.90;;;;;;5047076;28;20048;-65
2022/11/10 09:37:30;;;;;;;23.20;10.60;;;11.70;99.90;;;;;;5031602;28;20061;-65
2022/11/10 09:39:56;;;;;;;25.45;10.50;;;11.80;99.90;;;;;;5049564;28;20062;-65
2022/11/10 09:42:24;;;;;;;27.52;10.52;;;11.90;99.90;;;;;;5049456;28;20041;-65
2022/11/10 09:44:59;;;;;;;24.42;12.07;;;12.00;99.90;;;;;;5046679;28;20108;-65
2022/11/10 09:48:04;;;;;;;24.77;10.38;;;12.00;99.90;;;;;;5038950;28;20378;-65
2022/11/10 09:50:40;;;;;;;27.98;11.00;;;12.00;99.90;;;;;;4994838;28;20482;-66
2022/11/10 09:53:15;;;;;;;27.88;10.23;;;12.10;99.90;;;;;;5027217;28;20053;-65
2022/11/10 09:55:48;;;;;;;26.38;10.68;;;12.10;99.90;;;;;;5043507;28;20056;-65
2022/11/10 09:58:15;;;;;;;20.77;10.00;;;12.20;99.90;;;;;;5024387;28;20037;-65
2022/11/10 10:00:45;;;;;;;24.38;9.90;;;12.20;99.90;;;;;;5059331;28;20057;-65
2022/11/10 10:03:18;;;;;;;26.48;10.05;;;12.30;99.90;;;;;;5035936;28;20060;-65
2022/11/10 10:05:50;;;;;;;33.22;11.00;;;12.40;99.90;;;;;;5053093;28;20056;-65
2022/11/10 10:08:22;;;;;;;23.52;10.55;;;12.30;99.90;;;;;;5031979;28;20052;-65
2022/11/10 10:11:04;;;;;;;19.70;9.05;;;12.40;99.90;;;;;;5037569;28;20057;-65
2022/11/10 10:14:07;;;;;;;22.42;9.75;;;12.40;99.90;;;;;;5009328;28;20135;-66
2022/11/10 10:16:38;;;;;;;25.05;9.70;;;12.50;99.90;;;;;;5043833;28;20133;-66
2022/11/10 10:19:45;;;;;;;25.38;9.50;;;12.60;99.90;;;;;;5026163;28;20107;-65
2022/11/10 10:22:42;;;;;;;25.85;8.38;;;12.50;99.90;;;;;;5052477;28;20041;-65
2022/11/10 10:25:20;;;;;;;22.20;7.63;;;12.60;99.90;;;;;;5042642;28;20051;-65
2022/11/10 10:27:50;;;;;;;29.98;8.30;;;12.60;99.90;;;;;;5036588;28;20059;-65
2022/11/10 10:30:18;;;;;;;18.97;6.57;;;12.70;99.90;;;;;;5042922;28;20080;-65
2022/11/10 10:32:44;;;;;;;26.30;8.27;;;12.70;99.90;;;;;;5039177;28;20075;-65
2022/11/10 10:35:15;;;;;;;20.13;7.70;;;12.70;99.90;;;;;;5044961;28;20075;-65
2022/11/10 10:37:49;;;;;;;18.70;7.95;;;12.60;99.90;;;;;;5018198;28;20109;-65
2022/11/10 10:40:18;;;;;;;17.88;6.15;;;12.70;99.90;;;;;;5053804;28;20049;-65
2022/11/10 10:42:44;;;;;;;26.70;7.35;;;12.70;99.90;;;;;;5007114;28;20045;-66
2022/11/10 10:45:17;;;;;;;21.05;6.13;;;12.90;99.90;;;;;;5008481;28;20057;-65
2022/11/10 10:47:44;;;;;;;19.80;6.90;;;13.00;99.90;;;;;;4999026;28;20051;-65
2022/11/10 10:50:26;;;;;;;21.10;5.85;;;13.00;99.90;;;;;;5033498;28;20061;-65
2022/11/10 10:53:06;;;;;;;20.00;6.60;;;12.90;99.90;;;;;;5050656;28;20119;-65
2022/11/10 10:55:32;;;;;;;19.90;6.90;;;12.90;99.90;;;;;;5039609;28;20053;-65
2022/11/10 10:58:20;;;;;;;18.85;6.40;;;12.80;99.90;;;;;;5022225;28;20045;-65
2022/11/10 11:00:48;;;;;;;22.20;6.10;;;12.80;99.90;;;;;;5032697;28;20106;-65
2022/11/10 11:03:29;;;;;;;22.23;6.15;;;12.80;99.90;;;;;;5035557;28;20045;-66
2022/11/10 11:06:19;;;;;;;22.60;6.72;;;12.90;99.90;;;;;;5045907;28;20151;-65
2022/11/10 11:08:55;;;;;;;21.45;5.93;;;12.90;99.90;;;;;;5026065;28;20045;-65
2022/11/10 11:11:28;;;;;;;21.98;6.57;;;12.90;99.90;;;;;;5009947;28;20049;-64
2022/11/10 11:14:15;;;;;;;18.42;6.10;;;13.10;99.90;;;;;;5016757;28;20030;-65
2022/11/10 11:16:49;;;;;;;20.70;5.88;;;13.10;99.90;;;;;;5030797;28;20046;-65
2022/11/10 11:19:15;;;;;;;19.52;6.13;;;13.10;99.90;;;;;;5011114;28;20054;-65
2022/11/10 11:22:04;;;;;;;17.13;5.85;;;13.20;99.90;;;;;;5013970;28;20048;-65
2022/11/10 11:24:32;;;;;;;19.80;5.80;;;13.20;99.90;;;;;;5023781;28;20120;-65
2022/11/10 11:27:32;;;;;;;18.60;5.32;;;13.20;99.90;;;;;;5023980;28;20057;-65
2022/11/10 11:30:19;;;;;;;22.42;5.20;;;13.30;99.90;;;;;;5008007;28;20063;-65
2022/11/10 11:33:02;;;;;;;22.15;5.47;;;13.30;99.90;;;;;;5038935;28;20053;-65
2022/11/10 11:35:51;;;;;;;22.35;6.32;;;13.30;99.90;;;;;;5037307;28;20050;-65
2022/11/10 11:38:37;;;;;;;19.38;5.55;;;13.40;99.90;;;;;;4994080;28;20042;-65
2022/11/10 11:41:13;;;;;;;17.17;5.18;;;13.40;99.90;;;;;;5033012;28;20157;-65
2022/11/10 11:43:47;;;;;;;23.33;5.95;;;13.40;99.90;;;;;;5052115;28;20058;-66
2022/11/10 11:46:21;;;;;;;18.38;5.32;;;13.40;99.90;;;;;;5025242;28;20566;-66
2022/11/10 11:49:01;;;;;;;16.52;4.60;;;13.40;99.90;;;;;;5007424;28;20350;-67
2022/11/10 11:51:37;;;;;;;;;;;13.50;99.90;;;;;;5059503;28;20235;-65
2022/11/10 11:54:20;;;;;;;18.45;5.85;;;13.40;99.90;;;;;;5032238;28;19978;-66
2022/11/10 11:56:49;;;;;;;18.98;5.35;;;13.40;99.90;;;;;;5061066;28;20048;-66
2022/11/10 11:59:27;;;;;;;27.25;5.72;;;13.40;99.90;;;;;;5041474;28;20040;-65
2022/11/10 12:02:17;;;;;;;20.10;5.80;;;13.40;99.90;;;;;;5046018;28;20090;-66
2022/11/10 12:05:00;;;;;;;14.75;4.43;;;13.50;99.90;;;;;;5049128;28;20048;-66
2022/11/10 12:07:34;;;;;;;19.15;4.53;;;13.60;99.90;;;;;;5051504;28;20041;-65
2022/11/10 12:10:22;;;;;;;22.05;5.95;;;13.60;99.90;;;;;;5044680;28;20272;-65
2022/11/10 12:13:18;;;;;;;14.77;3.83;;;13.80;99.90;;;;;;5037232;28;20042;-66
2022/11/10 12:15:47;;;;;;;18.30;5.00;;;13.80;99.90;;;;;;5052260;28;20051;-65
2022/11/10 12:18:44;;;;;;;24.70;4.90;;;13.80;99.90;;;;;;5055521;28;20049;-66
2022/11/10 12:21:22;;;;;;;18.40;4.57;;;13.80;99.90;;;;;;5054983;28;20476;-66
2022/11/10 12:24:19;;;;;;;18.92;4.55;;;13.90;99.90;;;;;;5049752;28;20067;-65
2022/11/10 12:26:55;;;;;;;16.48;4.60;;;13.90;99.90;;;;;;5009973;28;20042;-66
2022/11/10 12:29:30;;;;;;;14.45;3.83;;;13.90;99.90;;;;;;5043530;28;20047;-65
2022/11/10 12:32:24;;;;;;;17.77;4.25;;;13.90;99.90;;;;;;5064966;28;20068;-65
2022/11/10 12:34:56;;;;;;;21.35;3.65;;;13.80;99.90;;;;;;5048805;28;20072;-65
2022/11/10 12:37:38;;;;;;;17.25;4.32;;;13.90;99.90;;;;;;5044256;28;20096;-65
2022/11/10 12:40:11;;;;;;;15.85;4.15;;;13.80;99.90;;;;;;5058262;28;20052;-66
2022/11/10 12:42:37;;;;;;;17.67;4.55;;;13.90;99.90;;;;;;5055229;28;20119;-66
2022/11/10 12:45:14;;;;;;;19.83;3.80;;;13.80;99.90;;;;;;5063044;28;20094;-66
2022/11/10 12:47:44;;;;;;;16.77;3.63;;;13.90;99.90;;;;;;5067318;28;20045;-66
2022/11/10 12:50:27;;;;;;;25.13;3.88;;;13.90;99.90;;;;;;5058950;28;20047;-66
2022/11/10 12:53:07;;;;;;;13.90;3.90;;;13.90;99.90;;;;;;5033532;28;20033;-66
2022/11/10 12:55:37;;;;;;;13.93;2.90;;;13.90;99.90;;;;;;5061448;28;20084;-65
2022/11/10 12:58:04;;;;;;;16.13;3.28;;;14.00;99.90;;;;;;5059514;28;20036;-66
2022/11/10 13:00:36;;;;;;;19.25;3.15;;;14.00;99.90;;;;;;5050910;28;20118;-65
2022/11/10 13:03:02;;;;;;;15.10;3.25;;;14.00;99.90;;;;;;5042213;28;20072;-66